createdAt,value
2019-05-03T00:01:37.543Z,11.20
2019-05-03T00:04:06.931Z,11.10
2019-05-03T00:06:36.231Z,11.04
2019-05-03T00:09:08.047Z,10.96
2019-05-03T00:11:37.501Z,10.97
2019-05-03T00:14:06.908Z,11.18
2019-05-03T00:16:38.785Z,10.96
2019-05-03T00:19:08.014Z,10.97
2019-05-03T00:21:37.353Z,10.87
2019-05-03T00:24:06.616Z,11.10
2019-05-03T00:26:35.855Z,10.93
2019-05-03T00:29:05.116Z,11.10
2019-05-03T00:31:34.392Z,11.02
2019-05-03T00:34:07.846Z,10.95
2019-05-03T00:36:52.365Z,10.96
2019-05-03T00:39:29.189Z,10.85
2019-05-03T00:41:58.464Z,10.91
2019-05-03T00:44:27.692Z,10.88
2019-05-03T00:46:56.987Z,11.05
2019-05-03T00:49:26.394Z,11.08
2019-05-03T00:51:55.678Z,11.07
2019-05-03T00:54:24.969Z,11.14
2019-05-03T00:56:54.241Z,10.94
2019-05-03T01:03:32.524Z,10.91
2019-05-03T01:19:19.827Z,10.79
2019-05-03T01:21:49.042Z,10.81
2019-05-03T01:24:18.535Z,10.72
2019-05-03T01:26:47.818Z,10.67
2019-05-03T01:29:17.119Z,10.45
2019-05-03T01:31:46.325Z,10.49
2019-05-03T01:34:15.562Z,10.36
2019-05-03T01:36:44.805Z,10.51
2019-05-03T01:39:14.093Z,10.50
2019-05-03T01:41:43.387Z,10.59
2019-05-03T01:44:12.654Z,10.71
2019-05-03T01:46:42.219Z,10.59
2019-05-03T01:49:27.514Z,10.72
2019-05-03T01:52:15.697Z,10.44
2019-05-03T01:54:45.129Z,10.76
2019-05-03T01:57:14.393Z,10.81
2019-05-03T01:59:43.719Z,10.63
2019-05-03T02:02:32.417Z,10.78
2019-05-03T02:05:27.151Z,10.75
2019-05-03T02:07:56.451Z,10.88
2019-05-03T02:10:25.727Z,10.91
2019-05-03T02:12:54.963Z,10.91
2019-05-03T02:15:24.224Z,10.75
2019-05-03T02:17:53.489Z,10.87
2019-05-03T02:20:22.756Z,10.88
2019-05-03T02:22:52.277Z,10.70
2019-05-03T02:25:21.834Z,10.80
2019-05-03T02:27:52.703Z,10.78
2019-05-03T02:30:24.727Z,10.48
2019-05-03T02:32:53.563Z,10.62
2019-05-03T02:35:22.918Z,10.63
2019-05-03T02:37:54.216Z,10.56
2019-05-03T02:40:24.913Z,10.61
2019-05-03T02:43:16.644Z,10.68
2019-05-03T02:46:08.026Z,10.59
2019-05-03T02:48:55.899Z,10.45
2019-05-03T02:51:26.126Z,10.71
2019-05-03T02:53:57.040Z,10.41
2019-05-03T02:56:26.599Z,10.59
2019-05-03T02:58:56.123Z,10.47
2019-05-03T03:01:26.426Z,10.47
2019-05-03T03:03:56.724Z,10.42
2019-05-03T03:06:27.319Z,10.44
2019-05-03T03:08:58.793Z,10.61
2019-05-03T03:11:30.639Z,10.58
2019-05-03T03:14:01.828Z,10.29
2019-05-03T03:16:35.931Z,9.97
2019-05-03T03:19:06.722Z,10.45
2019-05-03T03:21:41.354Z,10.29
2019-05-03T03:24:16.690Z,9.96
2019-05-03T03:26:47.319Z,9.94
2019-05-03T03:29:18.215Z,9.74
2019-05-03T03:31:58.162Z,9.53
2019-05-03T03:34:31.623Z,9.86
2019-05-03T03:37:06.482Z,10.09
2019-05-03T03:39:32.899Z,10.07
2019-05-03T03:42:05.263Z,10.02
2019-05-03T03:44:36.564Z,10.15
2019-05-03T03:47:05.991Z,9.97
2019-05-03T03:49:36.927Z,9.84
2019-05-03T03:52:10.264Z,9.98
2019-05-03T03:54:42.270Z,9.46
2019-05-03T03:57:15.889Z,9.54
2019-05-03T03:59:45.760Z,9.69
2019-05-03T04:02:16.466Z,9.41
2019-05-03T04:04:45.763Z,9.31
2019-05-03T04:07:16.061Z,9.50
2019-05-03T04:09:45.983Z,9.69
2019-05-03T04:12:16.452Z,9.61
2019-05-03T04:15:07.950Z,9.56
2019-05-03T04:17:45.812Z,9.46
2019-05-03T04:20:17.166Z,9.61
2019-05-03T04:22:46.509Z,9.79
2019-05-03T04:25:15.798Z,9.51
2019-05-03T04:27:45.562Z,9.63
2019-05-03T04:30:19.324Z,9.86
2019-05-03T04:32:48.758Z,9.86
2019-05-03T04:35:18.003Z,9.85
2019-05-03T04:37:47.271Z,9.64
2019-05-03T04:40:19.672Z,9.63
2019-05-03T04:42:49.025Z,9.71
2019-05-03T04:45:18.355Z,9.84
2019-05-03T04:47:47.694Z,9.99
2019-05-03T04:50:16.922Z,10.01
2019-05-03T04:52:46.583Z,10.10
2019-05-03T04:55:16.278Z,10.09
2019-05-03T04:57:50.093Z,10.08
2019-05-03T05:00:17.031Z,9.98
2019-05-03T05:02:46.389Z,10.07
2019-05-03T05:05:44.830Z,9.97
2019-05-03T05:08:15.996Z,10.11
2019-05-03T05:10:45.410Z,10.33
2019-05-03T05:13:15.790Z,10.41
2019-05-03T05:23:31.484Z,10.46
2019-05-03T05:39:35.610Z,10.07
2019-05-03T05:49:29.554Z,10.21
2019-05-03T05:52:32.006Z,10.66
2019-05-03T05:55:31.387Z,10.93
2019-05-03T06:12:45.316Z,11.02
2019-05-03T06:15:35.189Z,11.26
2019-05-03T06:18:08.020Z,11.16
2019-05-03T06:21:32.176Z,10.97
2019-05-03T06:24:06.001Z,11.05
2019-05-03T06:26:37.324Z,11.64
2019-05-03T06:29:06.994Z,11.80
2019-05-03T06:31:46.634Z,11.19
2019-05-03T06:34:16.087Z,11.71
2019-05-03T06:36:46.972Z,10.87
2019-05-03T06:39:16.271Z,11.38
2019-05-03T06:41:45.510Z,11.48
2019-05-03T06:44:19.219Z,11.79
2019-05-03T06:46:47.349Z,11.99
2019-05-03T06:49:16.911Z,11.65
2019-05-03T06:51:49.730Z,11.60
2019-05-03T06:54:20.555Z,11.69
2019-05-03T06:56:48.280Z,11.50
2019-05-03T06:59:24.926Z,11.41
2019-05-03T07:02:07.660Z,11.51
2019-05-03T07:04:41.398Z,11.39
2019-05-03T07:07:28.708Z,12.14
2019-05-03T07:10:19.939Z,11.85
2019-05-03T07:12:58.326Z,11.88
2019-05-03T07:15:27.768Z,11.66
2019-05-03T07:17:57.054Z,12.28
2019-05-03T07:20:26.356Z,12.24
2019-05-03T07:22:56.119Z,12.52
2019-05-03T07:25:25.952Z,12.34
2019-05-03T07:27:55.705Z,12.19
2019-05-03T07:30:25.172Z,12.39
2019-05-03T07:33:02.507Z,12.69
2019-05-03T07:35:31.810Z,11.83
2019-05-03T07:38:01.135Z,12.56
2019-05-03T07:40:30.406Z,11.77
2019-05-03T07:42:59.678Z,12.12
2019-05-03T07:45:28.982Z,12.18
2019-05-03T07:47:58.283Z,11.82
2019-05-03T07:50:27.586Z,11.55
2019-05-03T07:52:56.805Z,12.17
2019-05-03T07:55:45.720Z,12.07
2019-05-03T07:58:18.399Z,12.00
2019-05-03T08:01:02.916Z,12.08
2019-05-03T08:03:19.852Z,11.69
2019-05-03T08:05:49.178Z,11.93
2019-05-03T08:08:18.510Z,12.72
2019-05-03T08:10:47.783Z,12.90
2019-05-03T08:13:17.084Z,12.75
2019-05-03T08:15:46.381Z,13.08
2019-05-03T08:18:15.653Z,13.60
2019-05-03T08:20:45.301Z,12.97
2019-05-03T08:23:26.299Z,12.62
2019-05-03T08:25:45.849Z,12.06
2019-05-03T08:28:15.145Z,12.35
2019-05-03T08:31:15.740Z,12.75
2019-05-03T08:34:22.342Z,13.08
2019-05-03T08:37:16.193Z,13.42
2019-05-03T08:39:45.531Z,12.32
2019-05-03T08:42:21.387Z,14.08
2019-05-03T08:44:50.710Z,13.93
2019-05-03T08:47:20.092Z,14.36
2019-05-03T08:49:49.362Z,14.42
2019-05-03T08:52:18.692Z,13.77
2019-05-03T08:54:48.010Z,13.57
2019-05-03T08:57:17.303Z,13.54
2019-05-03T08:59:46.591Z,13.50
2019-05-03T09:02:17.776Z,13.46
2019-05-03T09:04:46.852Z,13.93
2019-05-03T09:07:16.164Z,13.50
2019-05-03T09:10:12.493Z,13.64
2019-05-03T09:12:59.509Z,13.84
2019-05-03T09:15:28.899Z,14.13
2019-05-03T09:17:58.196Z,13.89
2019-05-03T09:20:27.495Z,13.34
2019-05-03T09:22:56.791Z,12.79
2019-05-03T09:25:26.049Z,12.91
2019-05-03T09:27:55.432Z,14.24
2019-05-03T09:30:25.164Z,14.48
2019-05-03T09:32:55.666Z,15.05
2019-05-03T09:35:30.477Z,15.00
2019-05-03T09:37:56.078Z,15.61
2019-05-03T09:40:25.351Z,14.73
2019-05-03T09:42:55.166Z,15.24
2019-05-03T09:45:24.669Z,14.97
2019-05-03T09:47:55.150Z,13.75
2019-05-03T09:50:24.773Z,13.74
2019-05-03T09:52:55.375Z,13.20
2019-05-03T09:55:30.110Z,13.68
2019-05-03T09:57:59.400Z,13.12
2019-05-03T10:00:28.719Z,13.96
2019-05-03T10:02:58.005Z,15.06
2019-05-03T10:05:27.261Z,14.71
2019-05-03T10:07:56.528Z,14.39
2019-05-03T10:10:25.803Z,14.37
2019-05-03T10:12:55.164Z,14.59
2019-05-03T10:15:54.788Z,14.82
2019-05-03T10:18:25.500Z,14.86
2019-05-03T10:20:56.124Z,14.31
2019-05-03T10:23:41.408Z,13.51
2019-05-03T10:26:10.975Z,13.79
2019-05-03T10:28:40.404Z,14.25
2019-05-03T10:31:09.735Z,14.45
2019-05-03T10:33:44.980Z,14.62
2019-05-03T10:36:15.409Z,14.49
2019-05-03T10:38:45.889Z,15.33
2019-05-03T10:41:16.760Z,14.80
2019-05-03T10:43:46.054Z,15.17
2019-05-03T10:46:15.923Z,14.41
2019-05-03T10:48:45.553Z,14.85
2019-05-03T10:51:15.830Z,14.77
2019-05-03T10:53:48.065Z,15.89
2019-05-03T10:56:39.512Z,16.72
2019-05-03T10:59:09.627Z,15.57
2019-05-03T11:01:56.440Z,15.52
2019-05-03T11:04:26.549Z,15.37
2019-05-03T11:06:55.837Z,15.53
2019-05-03T11:09:25.840Z,15.00
2019-05-03T11:11:55.753Z,15.42
2019-05-03T11:14:25.568Z,14.64
2019-05-03T11:16:55.431Z,14.99
2019-05-03T11:19:25.366Z,14.03
2019-05-03T11:21:54.936Z,14.22
2019-05-03T11:24:27.314Z,14.95
2019-05-03T11:27:01.134Z,15.12
2019-05-03T11:29:30.514Z,15.08
2019-05-03T11:32:19.404Z,14.94
2019-05-03T11:34:57.913Z,15.71
2019-05-03T11:37:46.172Z,14.97
2019-05-03T11:40:15.892Z,15.09
2019-05-03T11:42:45.344Z,15.54
2019-05-03T11:45:15.362Z,15.13
2019-05-03T11:47:45.746Z,14.55
2019-05-03T11:50:15.531Z,15.57
2019-05-03T11:52:47.230Z,16.77
2019-05-03T11:55:16.214Z,17.26
2019-05-03T11:57:45.487Z,17.05
2019-05-03T12:00:17.159Z,16.59
2019-05-03T12:03:08.423Z,15.96
2019-05-03T12:05:37.745Z,16.01
2019-05-03T12:08:07.115Z,14.99
2019-05-03T12:10:52.486Z,15.66
2019-05-03T12:13:19.564Z,14.82
2019-05-03T12:15:48.958Z,14.34
2019-05-03T12:18:18.797Z,14.59
2019-05-03T12:20:49.479Z,14.79
2019-05-03T12:23:19.779Z,15.15
2019-05-03T12:25:50.308Z,16.27
2019-05-03T12:28:22.427Z,16.42
2019-05-03T12:30:54.787Z,17.12
2019-05-03T12:33:26.172Z,17.12
2019-05-03T12:35:58.962Z,17.09
2019-05-03T12:38:27.361Z,16.40
2019-05-03T12:40:56.757Z,15.33
2019-05-03T12:43:26.130Z,15.45
2019-05-03T12:45:55.423Z,16.13
2019-05-03T12:48:40.435Z,15.64
2019-05-03T12:51:10.342Z,15.66
2019-05-03T12:53:39.805Z,15.62
2019-05-03T12:56:12.259Z,15.88
2019-05-03T12:59:01.581Z,15.71
2019-05-03T13:02:02.167Z,15.22
2019-05-03T13:04:34.249Z,15.56
2019-05-03T13:07:12.201Z,15.24
2019-05-03T13:09:41.603Z,15.97
2019-05-03T13:12:14.627Z,16.89
2019-05-03T13:14:42.671Z,16.47
2019-05-03T13:17:11.910Z,16.27
2019-05-03T13:19:41.311Z,16.22
2019-05-03T13:22:11.791Z,15.92
2019-05-03T13:24:41.195Z,16.35
2019-05-03T13:27:10.605Z,16.95
2019-05-03T13:29:41.221Z,16.21
2019-05-03T13:32:12.504Z,16.71
2019-05-03T13:34:48.529Z,16.13
2019-05-03T13:37:39.276Z,16.08
2019-05-03T13:40:09.260Z,16.89
2019-05-03T13:42:38.697Z,16.10
2019-05-03T13:45:08.224Z,16.19
2019-05-03T13:47:37.577Z,16.04
2019-05-03T13:50:06.952Z,16.27
2019-05-03T13:52:36.293Z,15.72
2019-05-03T13:55:05.971Z,16.01
2019-05-03T13:57:35.953Z,15.67
2019-05-03T14:00:06.040Z,16.63
2019-05-03T14:02:35.893Z,16.48
2019-05-03T14:05:06.123Z,16.43
2019-05-03T14:07:35.572Z,16.08
2019-05-03T14:10:05.588Z,15.89
2019-05-03T14:12:35.207Z,15.71
2019-05-03T14:15:05.684Z,16.34
2019-05-03T14:17:35.119Z,15.99
2019-05-03T14:20:19.078Z,15.59
2019-05-03T14:22:49.562Z,15.52
2019-05-03T14:25:18.979Z,15.75
2019-05-03T14:27:48.331Z,16.58
2019-05-03T14:30:18.130Z,16.65
2019-05-03T14:32:47.430Z,16.36
2019-05-03T14:35:19.936Z,16.23
2019-05-03T14:37:49.272Z,16.29
2019-05-03T14:40:18.545Z,16.46
2019-05-03T14:42:48.075Z,15.64
2019-05-03T14:45:17.513Z,15.70
2019-05-03T14:47:47.957Z,16.27
2019-05-03T14:50:17.307Z,15.86
2019-05-03T14:52:47.885Z,16.36
2019-05-03T14:55:25.179Z,15.78
2019-05-03T14:58:17.592Z,15.63
2019-05-03T15:00:59.403Z,15.56
2019-05-03T15:03:28.698Z,15.82
2019-05-03T15:05:58.375Z,15.20
2019-05-03T15:08:28.006Z,15.61
2019-05-03T15:10:57.347Z,15.81
2019-05-03T15:13:26.685Z,15.24
2019-05-03T15:15:56.123Z,14.91
2019-05-03T15:18:25.713Z,15.16
2019-05-03T15:20:55.200Z,15.11
2019-05-03T15:23:25.469Z,14.52
2019-05-03T15:25:54.965Z,14.76
2019-05-03T15:28:25.085Z,15.00
2019-05-03T15:30:55.308Z,14.52
2019-05-03T15:33:24.901Z,14.66
2019-05-03T15:35:55.254Z,15.06
2019-05-03T15:38:24.727Z,14.92
2019-05-03T15:40:54.827Z,15.28
2019-05-03T15:43:37.598Z,15.06
2019-05-03T15:46:35.001Z,15.27
2019-05-03T15:49:04.708Z,14.75
2019-05-03T15:51:34.296Z,14.16
2019-05-03T15:54:04.576Z,14.29
2019-05-03T15:56:33.943Z,14.87
2019-05-03T15:59:04.492Z,14.67
2019-05-03T16:01:35.319Z,14.64
2019-05-03T16:04:04.932Z,14.08
2019-05-03T16:06:34.306Z,14.50
2019-05-03T16:09:05.451Z,14.46
2019-05-03T16:11:34.742Z,14.60
2019-05-03T16:14:04.508Z,14.30
2019-05-03T16:16:35.391Z,13.98
2019-05-03T16:19:05.393Z,14.38
2019-05-03T16:21:36.751Z,14.65
2019-05-03T16:24:06.210Z,14.21
2019-05-03T16:26:37.979Z,14.44
2019-05-03T16:29:11.046Z,14.65
2019-05-03T16:31:40.375Z,15.13
2019-05-03T16:34:09.843Z,15.05
2019-05-03T16:36:39.205Z,14.66
2019-05-03T16:39:10.578Z,14.00
2019-05-03T16:41:41.703Z,14.45
2019-05-03T16:44:11.207Z,14.71
2019-05-03T16:46:48.513Z,14.75
2019-05-03T16:49:17.833Z,13.96
2019-05-03T16:51:47.197Z,14.47
2019-05-03T16:54:16.570Z,14.44
2019-05-03T16:56:49.008Z,14.20
2019-05-03T16:59:18.399Z,13.60
2019-05-03T17:01:47.846Z,13.68
2019-05-03T17:04:42.415Z,13.46
2019-05-03T17:07:30.746Z,13.71
2019-05-03T17:10:07.767Z,13.70
2019-05-03T17:12:40.193Z,13.40
2019-05-03T17:15:09.716Z,13.28
2019-05-03T17:17:39.101Z,13.63
2019-05-03T17:20:08.662Z,13.56
2019-05-03T17:22:38.120Z,13.90
2019-05-03T17:25:07.590Z,13.38
2019-05-03T17:27:38.924Z,13.08
2019-05-03T17:30:08.625Z,13.39
2019-05-03T17:32:38.012Z,13.36
2019-05-03T17:35:07.573Z,13.19
2019-05-03T17:37:36.894Z,12.95
2019-05-03T17:40:34.841Z,13.15
2019-05-03T17:43:23.153Z,13.08
2019-05-03T17:45:55.915Z,13.06
2019-05-03T17:48:24.352Z,13.20
2019-05-03T17:50:55.025Z,12.96
2019-05-03T17:53:46.262Z,13.08
2019-05-03T17:56:19.890Z,13.14
2019-05-03T17:58:55.666Z,13.05
2019-05-03T18:01:46.827Z,12.76
2019-05-03T18:04:38.297Z,12.26
2019-05-03T18:07:18.030Z,12.41
2019-05-03T18:09:47.847Z,12.39
2019-05-03T18:12:17.266Z,12.43
2019-05-03T18:14:46.608Z,12.43
2019-05-03T18:17:15.978Z,12.22
2019-05-03T18:19:47.773Z,12.71
2019-05-03T18:22:16.538Z,12.39
2019-05-03T18:24:45.905Z,12.62
2019-05-03T18:27:15.300Z,12.26
2019-05-03T18:29:46.416Z,12.18
2019-05-03T18:32:15.853Z,12.05
2019-05-03T18:34:45.503Z,12.21
2019-05-03T18:37:15.361Z,12.31
2019-05-03T18:39:46.142Z,11.83
2019-05-03T18:42:21.124Z,11.80
2019-05-03T18:44:55.549Z,11.86
2019-05-03T18:47:26.124Z,11.95
2019-05-03T18:49:55.743Z,11.83
2019-05-03T18:52:28.961Z,11.77
2019-05-03T18:54:58.387Z,11.77
2019-05-03T18:57:28.127Z,11.88
2019-05-03T18:59:57.502Z,11.75
2019-05-03T19:02:26.986Z,11.91
2019-05-03T19:04:56.608Z,11.95
2019-05-03T19:10:59.472Z,11.66
2019-05-03T19:13:41.464Z,11.69
2019-05-03T19:16:31.589Z,11.92
2019-05-03T19:19:01.596Z,11.63
2019-05-03T19:21:35.042Z,11.62
2019-05-03T19:24:04.723Z,11.70
2019-05-03T19:26:35.253Z,11.56
2019-05-03T19:29:06.317Z,11.58
2019-05-03T19:31:35.791Z,11.65
2019-05-03T19:34:06.085Z,11.62
2019-05-03T19:36:37.271Z,11.55
2019-05-03T19:39:07.567Z,11.53
2019-05-03T19:41:36.925Z,11.37
2019-05-03T19:44:06.355Z,11.26
2019-05-03T19:46:35.713Z,11.37
2019-05-03T19:49:05.141Z,11.54
2019-05-03T19:51:36.542Z,11.59
2019-05-03T19:54:06.843Z,11.38
2019-05-03T19:56:37.139Z,11.49
2019-05-03T19:59:09.353Z,11.27
2019-05-03T20:01:51.576Z,11.13
2019-05-03T20:04:37.906Z,11.31
2019-05-03T20:07:28.348Z,11.22
2019-05-03T20:09:57.696Z,11.29
2019-05-03T20:12:27.166Z,11.16
2019-05-03T20:14:56.589Z,11.14
2019-05-03T20:17:25.998Z,11.06
2019-05-03T20:19:55.455Z,11.24
2019-05-03T20:22:24.830Z,11.21
2019-05-03T20:24:55.268Z,11.05
2019-05-03T20:27:24.597Z,11.13
2019-05-03T20:29:55.443Z,11.21
2019-05-03T20:32:25.264Z,11.17
2019-05-03T20:34:55.128Z,11.16
2019-05-03T20:37:25.107Z,10.60
2019-05-03T20:39:54.758Z,10.90
2019-05-03T20:42:41.913Z,10.87
2019-05-03T20:45:17.799Z,10.84
2019-05-03T20:47:58.169Z,11.02
2019-05-03T20:50:27.668Z,11.01
2019-05-03T20:52:57.070Z,10.56
2019-05-03T20:55:26.492Z,10.42
2019-05-03T20:57:58.218Z,10.33
2019-05-03T21:00:27.613Z,10.49
2019-05-03T21:02:57.547Z,10.36
2019-05-03T21:05:31.814Z,10.11
2019-05-03T21:07:58.161Z,10.15
2019-05-03T21:10:31.505Z,9.98
2019-05-03T21:13:11.991Z,10.07
2019-05-03T21:15:47.746Z,10.11
2019-05-03T21:18:56.930Z,10.13
2019-05-03T21:21:44.545Z,9.93
2019-05-03T21:24:19.408Z,9.85
2019-05-03T21:26:48.885Z,9.67
2019-05-03T21:29:18.365Z,9.91
2019-05-03T21:31:47.718Z,9.88
2019-05-03T21:34:18.481Z,9.98
2019-05-03T21:36:47.762Z,9.83
2019-05-03T21:39:17.117Z,9.54
2019-05-03T21:41:46.611Z,9.67
2019-05-03T21:44:32.324Z,9.64
2019-05-03T21:47:20.706Z,9.56
2019-05-03T21:49:50.704Z,9.48
2019-05-03T21:52:20.050Z,9.47
2019-05-03T21:54:49.375Z,9.64
2019-05-03T21:57:18.761Z,9.73
2019-05-03T21:59:48.197Z,9.71
2019-05-03T22:02:17.572Z,9.67
2019-05-03T22:04:46.909Z,9.46
2019-05-03T22:07:16.269Z,9.57
2019-05-03T22:09:45.618Z,9.62
2019-05-03T22:12:15.046Z,9.71
2019-05-03T22:14:50.447Z,9.77
2019-05-03T22:17:37.247Z,9.87
2019-05-03T22:20:15.918Z,9.77
2019-05-03T22:22:55.417Z,9.61
2019-05-03T22:25:27.833Z,9.58
2019-05-03T22:27:57.186Z,9.66
2019-05-03T22:30:26.862Z,9.50
2019-05-03T22:32:58.413Z,9.21
2019-05-03T22:35:27.468Z,9.43
2019-05-03T22:37:56.784Z,9.36
2019-05-03T22:40:26.129Z,9.17
2019-05-03T22:42:55.432Z,9.02
2019-05-03T22:45:24.790Z,9.06
2019-05-03T22:47:55.005Z,8.99
2019-05-03T22:50:25.522Z,9.15
2019-05-03T22:52:55.037Z,8.92
2019-05-03T22:55:24.660Z,9.04
2019-05-03T22:57:54.643Z,9.10
2019-05-03T23:00:25.154Z,8.95
2019-05-03T23:02:54.865Z,9.25
2019-05-03T23:05:24.171Z,9.16
2019-05-03T23:07:55.264Z,9.17
2019-05-03T23:10:25.681Z,9.23
2019-05-03T23:12:55.179Z,9.00
2019-05-03T23:15:24.543Z,9.10
2019-05-03T23:17:54.554Z,9.06
2019-05-03T23:20:34.471Z,9.10
2019-05-03T23:23:05.471Z,9.14
2019-05-03T23:25:35.557Z,9.07
2019-05-03T23:28:05.017Z,8.56
2019-05-03T23:30:34.311Z,8.12
2019-05-03T23:33:05.950Z,8.22
2019-05-03T23:35:35.273Z,8.14
2019-05-03T23:38:04.883Z,8.33
2019-05-03T23:40:34.738Z,7.72
2019-05-03T23:43:05.231Z,7.97
2019-05-03T23:45:34.836Z,7.91
2019-05-03T23:48:04.726Z,7.53
2019-05-03T23:50:35.373Z,7.17
2019-05-03T23:53:04.955Z,7.53
2019-05-03T23:55:40.259Z,7.60
2019-05-03T23:58:09.557Z,7.25
